sensor_id;sensor_type;location;lat;lon;timestamp;P1;durP1;ratioP1;P2;durP2;ratioP2
67140;SDS011;54058;52.010;5.546;2023-05-16T00:00:04;13.55;;;2.28;;
67140;SDS011;54058;52.010;5.546;2023-05-16T00:02:33;11.05;;;2.08;;
67140;SDS011;54058;52.010;5.546;2023-05-16T00:05:00;13.85;;;2.17;;
67140;SDS011;54058;52.010;5.546;2023-05-16T00:07:25;17.25;;;2.33;;
67140;SDS011;54058;52.010;5.546;2023-05-16T00:09:51;9.27;;;2.13;;
67140;SDS011;54058;52.010;5.546;2023-05-16T00:12:16;9.20;;;1.55;;
67140;SDS011;54058;52.010;5.546;2023-05-16T00:14:43;14.30;;;2.25;;
67140;SDS011;54058;52.010;5.546;2023-05-16T00:17:09;15.35;;;2.03;;
67140;SDS011;54058;52.010;5.546;2023-05-16T00:19:36;14.32;;;2.47;;
67140;SDS011;54058;52.010;5.546;2023-05-16T00:22:03;12.07;;;1.90;;
67140;SDS011;54058;52.010;5.546;2023-05-16T00:24:29;13.80;;;2.45;;
67140;SDS011;54058;52.010;5.546;2023-05-16T00:26:55;16.08;;;2.58;;
67140;SDS011;54058;52.010;5.546;2023-05-16T00:29:20;10.82;;;1.67;;
67140;SDS011;54058;52.010;5.546;2023-05-16T00:31:48;12.23;;;1.90;;
67140;SDS011;54058;52.010;5.546;2023-05-16T00:34:14;15.23;;;2.40;;
67140;SDS011;54058;52.010;5.546;2023-05-16T00:36:40;12.63;;;2.10;;
67140;SDS011;54058;52.010;5.546;2023-05-16T00:39:06;12.77;;;2.20;;
67140;SDS011;54058;52.010;5.546;2023-05-16T00:41:32;13.23;;;2.10;;
67140;SDS011;54058;52.010;5.546;2023-05-16T00:43:58;14.18;;;2.20;;
67140;SDS011;54058;52.010;5.546;2023-05-16T00:46:24;8.75;;;1.80;;
67140;SDS011;54058;52.010;5.546;2023-05-16T00:48:49;9.77;;;2.05;;
67140;SDS011;54058;52.010;5.546;2023-05-16T00:51:16;11.05;;;2.17;;
67140;SDS011;54058;52.010;5.546;2023-05-16T00:53:42;10.68;;;1.80;;
67140;SDS011;54058;52.010;5.546;2023-05-16T00:56:08;9.18;;;1.80;;
67140;SDS011;54058;52.010;5.546;2023-05-16T00:58:34;6.32;;;1.75;;
67140;SDS011;54058;52.010;5.546;2023-05-16T01:01:01;9.10;;;2.08;;
67140;SDS011;54058;52.010;5.546;2023-05-16T01:03:29;15.15;;;1.92;;
67140;SDS011;54058;52.010;5.546;2023-05-16T01:05:55;8.18;;;1.90;;
67140;SDS011;54058;52.010;5.546;2023-05-16T01:08:22;16.70;;;3.00;;
67140;SDS011;54058;52.010;5.546;2023-05-16T01:13:30;10.60;;;1.67;;
67140;SDS011;54058;52.010;5.546;2023-05-16T01:16:06;10.50;;;1.50;;
67140;SDS011;54058;52.010;5.546;2023-05-16T01:27:26;9.65;;;1.50;;
67140;SDS011;54058;52.010;5.546;2023-05-16T01:29:56;11.38;;;2.33;;
67140;SDS011;54058;52.010;5.546;2023-05-16T01:32:22;12.30;;;1.95;;
67140;SDS011;54058;52.010;5.546;2023-05-16T01:34:49;13.30;;;2.30;;
67140;SDS011;54058;52.010;5.546;2023-05-16T01:40:44;14.57;;;1.75;;
67140;SDS011;54058;52.010;5.546;2023-05-16T01:43:19;12.38;;;1.60;;
67140;SDS011;54058;52.010;5.546;2023-05-16T01:45:50;13.00;;;1.60;;
67140;SDS011;54058;52.010;5.546;2023-05-16T01:48:26;13.38;;;1.65;;
67140;SDS011;54058;52.010;5.546;2023-05-16T01:50:56;11.55;;;1.67;;
67140;SDS011;54058;52.010;5.546;2023-05-16T01:53:26;12.82;;;1.85;;
67140;SDS011;54058;52.010;5.546;2023-05-16T01:55:58;21.70;;;2.25;;
67140;SDS011;54058;52.010;5.546;2023-05-16T01:58:27;13.60;;;1.73;;
67140;SDS011;54058;52.010;5.546;2023-05-16T02:00:59;12.98;;;1.45;;
67140;SDS011;54058;52.010;5.546;2023-05-16T02:03:29;11.32;;;1.70;;
67140;SDS011;54058;52.010;5.546;2023-05-16T02:05:55;7.22;;;1.40;;
67140;SDS011;54058;52.010;5.546;2023-05-16T02:08:22;7.50;;;1.40;;
67140;SDS011;54058;52.010;5.546;2023-05-16T02:10:48;11.23;;;2.00;;
67140;SDS011;54058;52.010;5.546;2023-05-16T02:13:15;15.65;;;1.67;;
67140;SDS011;54058;52.010;5.546;2023-05-16T02:15:41;11.43;;;1.85;;
67140;SDS011;54058;52.010;5.546;2023-05-16T02:18:06;6.82;;;1.00;;
67140;SDS011;54058;52.010;5.546;2023-05-16T02:20:33;13.63;;;1.85;;
67140;SDS011;54058;52.010;5.546;2023-05-16T02:22:59;7.95;;;1.42;;
67140;SDS011;54058;52.010;5.546;2023-05-16T02:25:25;11.25;;;1.50;;
67140;SDS011;54058;52.010;5.546;2023-05-16T02:27:50;9.45;;;1.55;;
67140;SDS011;54058;52.010;5.546;2023-05-16T02:30:16;10.43;;;1.30;;
67140;SDS011;54058;52.010;5.546;2023-05-16T02:32:41;8.20;;;2.20;;
67140;SDS011;54058;52.010;5.546;2023-05-16T02:35:09;12.55;;;1.98;;
67140;SDS011;54058;52.010;5.546;2023-05-16T02:37:35;9.70;;;1.42;;
67140;SDS011;54058;52.010;5.546;2023-05-16T02:40:01;12.05;;;1.85;;
67140;SDS011;54058;52.010;5.546;2023-05-16T02:42:29;10.70;;;1.65;;
67140;SDS011;54058;52.010;5.546;2023-05-16T02:44:56;14.70;;;1.93;;
67140;SDS011;54058;52.010;5.546;2023-05-16T02:47:21;9.02;;;1.83;;
67140;SDS011;54058;52.010;5.546;2023-05-16T02:49:47;10.95;;;1.33;;
67140;SDS011;54058;52.010;5.546;2023-05-16T02:52:13;16.65;;;1.75;;
67140;SDS011;54058;52.010;5.546;2023-05-16T02:54:38;13.80;;;1.80;;
67140;SDS011;54058;52.010;5.546;2023-05-16T02:57:04;18.08;;;2.60;;
67140;SDS011;54058;52.010;5.546;2023-05-16T02:59:30;19.50;;;2.63;;
67140;SDS011;54058;52.010;5.546;2023-05-16T03:01:55;7.32;;;1.17;;
67140;SDS011;54058;52.010;5.546;2023-05-16T03:04:21;10.35;;;1.85;;
67140;SDS011;54058;52.010;5.546;2023-05-16T03:06:47;9.27;;;1.60;;
67140;SDS011;54058;52.010;5.546;2023-05-16T03:09:15;11.98;;;2.10;;
67140;SDS011;54058;52.010;5.546;2023-05-16T03:11:41;7.72;;;1.50;;
67140;SDS011;54058;52.010;5.546;2023-05-16T03:14:06;9.80;;;1.52;;
67140;SDS011;54058;52.010;5.546;2023-05-16T03:16:32;13.60;;;1.67;;
67140;SDS011;54058;52.010;5.546;2023-05-16T03:18:58;10.90;;;1.45;;
67140;SDS011;54058;52.010;5.546;2023-05-16T03:21:23;8.93;;;1.58;;
67140;SDS011;54058;52.010;5.546;2023-05-16T03:23:49;7.22;;;1.52;;
67140;SDS011;54058;52.010;5.546;2023-05-16T03:26:15;11.15;;;1.50;;
67140;SDS011;54058;52.010;5.546;2023-05-16T03:28:41;6.80;;;1.23;;
67140;SDS011;54058;52.010;5.546;2023-05-16T03:31:06;6.38;;;1.33;;
67140;SDS011;54058;52.010;5.546;2023-05-16T03:33:32;6.25;;;1.38;;
67140;SDS011;54058;52.010;5.546;2023-05-16T03:35:57;11.25;;;2.05;;
67140;SDS011;54058;52.010;5.546;2023-05-16T03:38:23;12.13;;;1.75;;
67140;SDS011;54058;52.010;5.546;2023-05-16T03:40:49;5.28;;;0.90;;
67140;SDS011;54058;52.010;5.546;2023-05-16T03:43:15;12.02;;;2.17;;
67140;SDS011;54058;52.010;5.546;2023-05-16T03:45:40;8.45;;;1.80;;
67140;SDS011;54058;52.010;5.546;2023-05-16T03:48:07;8.98;;;2.28;;
67140;SDS011;54058;52.010;5.546;2023-05-16T03:50:33;10.55;;;2.05;;
67140;SDS011;54058;52.010;5.546;2023-05-16T03:55:27;10.70;;;1.85;;
67140;SDS011;54058;52.010;5.546;2023-05-16T03:57:54;9.48;;;2.13;;
67140;SDS011;54058;52.010;5.546;2023-05-16T04:00:20;13.35;;;1.70;;
67140;SDS011;54058;52.010;5.546;2023-05-16T04:02:46;5.68;;;1.98;;
67140;SDS011;54058;52.010;5.546;2023-05-16T04:05:12;10.40;;;1.85;;
67140;SDS011;54058;52.010;5.546;2023-05-16T04:07:38;13.52;;;1.55;;
67140;SDS011;54058;52.010;5.546;2023-05-16T04:10:04;9.55;;;1.70;;
67140;SDS011;54058;52.010;5.546;2023-05-16T04:12:31;6.93;;;1.30;;
67140;SDS011;54058;52.010;5.546;2023-05-16T04:14:56;11.10;;;1.52;;
67140;SDS011;54058;52.010;5.546;2023-05-16T04:17:22;13.70;;;1.92;;
67140;SDS011;54058;52.010;5.546;2023-05-16T04:19:47;11.25;;;1.52;;
67140;SDS011;54058;52.010;5.546;2023-05-16T04:22:13;10.40;;;1.52;;
67140;SDS011;54058;52.010;5.546;2023-05-16T04:24:39;9.00;;;1.45;;
67140;SDS011;54058;52.010;5.546;2023-05-16T04:27:05;6.13;;;1.23;;
67140;SDS011;54058;52.010;5.546;2023-05-16T04:29:33;9.38;;;1.60;;
67140;SDS011;54058;52.010;5.546;2023-05-16T04:31:59;8.68;;;1.98;;
67140;SDS011;54058;52.010;5.546;2023-05-16T04:34:24;10.07;;;1.35;;
67140;SDS011;54058;52.010;5.546;2023-05-16T04:36:52;9.70;;;1.27;;
67140;SDS011;54058;52.010;5.546;2023-05-16T04:39:18;11.00;;;1.55;;
67140;SDS011;54058;52.010;5.546;2023-05-16T04:41:44;10.48;;;1.73;;
67140;SDS011;54058;52.010;5.546;2023-05-16T04:44:10;14.15;;;1.83;;
67140;SDS011;54058;52.010;5.546;2023-05-16T04:46:35;14.05;;;1.70;;
67140;SDS011;54058;52.010;5.546;2023-05-16T04:49:01;7.45;;;1.55;;
67140;SDS011;54058;52.010;5.546;2023-05-16T04:51:27;11.93;;;1.58;;
67140;SDS011;54058;52.010;5.546;2023-05-16T04:53:52;11.27;;;1.50;;
67140;SDS011;54058;52.010;5.546;2023-05-16T04:56:19;9.30;;;1.35;;
67140;SDS011;54058;52.010;5.546;2023-05-16T04:58:45;7.97;;;1.48;;
67140;SDS011;54058;52.010;5.546;2023-05-16T05:01:11;6.03;;;1.10;;
67140;SDS011;54058;52.010;5.546;2023-05-16T05:03:36;9.20;;;1.70;;
67140;SDS011;54058;52.010;5.546;2023-05-16T05:06:02;12.10;;;1.92;;
67140;SDS011;54058;52.010;5.546;2023-05-16T05:08:28;17.57;;;1.87;;
67140;SDS011;54058;52.010;5.546;2023-05-16T05:10:54;14.50;;;1.65;;
67140;SDS011;54058;52.010;5.546;2023-05-16T05:13:20;15.23;;;1.88;;
67140;SDS011;54058;52.010;5.546;2023-05-16T05:15:46;9.88;;;1.83;;
67140;SDS011;54058;52.010;5.546;2023-05-16T05:18:11;9.98;;;1.38;;
67140;SDS011;54058;52.010;5.546;2023-05-16T05:20:37;14.27;;;1.85;;
67140;SDS011;54058;52.010;5.546;2023-05-16T05:23:02;6.05;;;1.30;;
67140;SDS011;54058;52.010;5.546;2023-05-16T05:25:28;8.50;;;1.45;;
67140;SDS011;54058;52.010;5.546;2023-05-16T05:27:54;9.77;;;1.50;;
67140;SDS011;54058;52.010;5.546;2023-05-16T05:30:19;7.03;;;1.98;;
67140;SDS011;54058;52.010;5.546;2023-05-16T05:32:45;12.55;;;1.92;;
67140;SDS011;54058;52.010;5.546;2023-05-16T05:35:11;12.82;;;1.88;;
67140;SDS011;54058;52.010;5.546;2023-05-16T05:37:36;6.47;;;1.15;;
67140;SDS011;54058;52.010;5.546;2023-05-16T05:40:02;8.93;;;1.60;;
67140;SDS011;54058;52.010;5.546;2023-05-16T05:42:28;6.38;;;1.67;;
67140;SDS011;54058;52.010;5.546;2023-05-16T05:44:53;11.43;;;1.55;;
67140;SDS011;54058;52.010;5.546;2023-05-16T05:47:19;8.52;;;1.50;;
67140;SDS011;54058;52.010;5.546;2023-05-16T05:49:45;10.25;;;1.60;;
67140;SDS011;54058;52.010;5.546;2023-05-16T05:52:11;13.43;;;1.90;;
67140;SDS011;54058;52.010;5.546;2023-05-16T05:54:37;11.60;;;1.67;;
67140;SDS011;54058;52.010;5.546;2023-05-16T05:57:03;8.55;;;1.63;;
67140;SDS011;54058;52.010;5.546;2023-05-16T05:59:28;8.55;;;1.80;;
67140;SDS011;54058;52.010;5.546;2023-05-16T06:01:54;9.70;;;1.90;;
67140;SDS011;54058;52.010;5.546;2023-05-16T06:04:20;12.60;;;1.65;;
67140;SDS011;54058;52.010;5.546;2023-05-16T06:06:46;9.73;;;1.45;;
67140;SDS011;54058;52.010;5.546;2023-05-16T06:09:12;11.02;;;1.48;;
67140;SDS011;54058;52.010;5.546;2023-05-16T06:11:39;13.52;;;2.05;;
67140;SDS011;54058;52.010;5.546;2023-05-16T06:14:05;10.27;;;2.07;;
67140;SDS011;54058;52.010;5.546;2023-05-16T06:16:31;8.43;;;1.60;;
67140;SDS011;54058;52.010;5.546;2023-05-16T06:18:57;10.55;;;1.40;;
67140;SDS011;54058;52.010;5.546;2023-05-16T06:21:23;8.77;;;1.20;;
67140;SDS011;54058;52.010;5.546;2023-05-16T06:23:49;8.40;;;1.33;;
67140;SDS011;54058;52.010;5.546;2023-05-16T06:26:14;8.85;;;1.38;;
67140;SDS011;54058;52.010;5.546;2023-05-16T06:28:40;5.30;;;1.25;;
67140;SDS011;54058;52.010;5.546;2023-05-16T06:31:05;12.00;;;1.55;;
67140;SDS011;54058;52.010;5.546;2023-05-16T06:33:31;8.80;;;1.90;;
67140;SDS011;54058;52.010;5.546;2023-05-16T06:35:57;11.50;;;1.58;;
67140;SDS011;54058;52.010;5.546;2023-05-16T06:38:22;7.97;;;1.50;;
67140;SDS011;54058;52.010;5.546;2023-05-16T06:40:48;10.40;;;1.80;;
67140;SDS011;54058;52.010;5.546;2023-05-16T06:43:14;12.30;;;2.05;;
67140;SDS011;54058;52.010;5.546;2023-05-16T06:45:40;12.57;;;2.20;;
67140;SDS011;54058;52.010;5.546;2023-05-16T06:48:06;8.73;;;1.42;;
67140;SDS011;54058;52.010;5.546;2023-05-16T06:50:32;9.10;;;1.83;;
67140;SDS011;54058;52.010;5.546;2023-05-16T06:52:59;7.10;;;1.20;;
67140;SDS011;54058;52.010;5.546;2023-05-16T06:55:25;10.57;;;1.30;;
67140;SDS011;54058;52.010;5.546;2023-05-16T06:57:51;8.27;;;1.73;;
67140;SDS011;54058;52.010;5.546;2023-05-16T07:00:16;5.25;;;1.27;;
67140;SDS011;54058;52.010;5.546;2023-05-16T07:02:42;7.57;;;1.35;;
67140;SDS011;54058;52.010;5.546;2023-05-16T07:05:08;8.75;;;1.30;;
67140;SDS011;54058;52.010;5.546;2023-05-16T07:07:34;5.57;;;1.40;;
67140;SDS011;54058;52.010;5.546;2023-05-16T07:10:00;7.97;;;1.70;;
67140;SDS011;54058;52.010;5.546;2023-05-16T07:12:26;11.00;;;1.60;;
67140;SDS011;54058;52.010;5.546;2023-05-16T07:14:51;6.38;;;1.55;;
67140;SDS011;54058;52.010;5.546;2023-05-16T07:17:17;7.13;;;1.40;;
67140;SDS011;54058;52.010;5.546;2023-05-16T07:19:42;11.48;;;1.38;;
67140;SDS011;54058;52.010;5.546;2023-05-16T07:22:08;6.35;;;1.50;;
67140;SDS011;54058;52.010;5.546;2023-05-16T07:24:35;11.13;;;1.88;;
67140;SDS011;54058;52.010;5.546;2023-05-16T07:27:00;7.32;;;1.20;;
67140;SDS011;54058;52.010;5.546;2023-05-16T07:29:26;5.22;;;1.05;;
67140;SDS011;54058;52.010;5.546;2023-05-16T07:31:51;6.38;;;1.30;;
67140;SDS011;54058;52.010;5.546;2023-05-16T07:34:19;10.48;;;1.42;;
67140;SDS011;54058;52.010;5.546;2023-05-16T07:36:44;7.50;;;1.77;;
67140;SDS011;54058;52.010;5.546;2023-05-16T07:39:10;6.97;;;1.55;;
67140;SDS011;54058;52.010;5.546;2023-05-16T07:41:36;4.82;;;0.95;;
67140;SDS011;54058;52.010;5.546;2023-05-16T07:44:01;6.63;;;1.00;;
67140;SDS011;54058;52.010;5.546;2023-05-16T07:46:27;10.07;;;1.10;;
67140;SDS011;54058;52.010;5.546;2023-05-16T07:48:52;5.85;;;0.98;;
67140;SDS011;54058;52.010;5.546;2023-05-16T07:51:18;4.93;;;0.90;;
67140;SDS011;54058;52.010;5.546;2023-05-16T07:53:44;9.90;;;1.20;;
67140;SDS011;54058;52.010;5.546;2023-05-16T07:56:10;8.98;;;1.20;;
67140;SDS011;54058;52.010;5.546;2023-05-16T07:58:36;4.40;;;1.27;;
67140;SDS011;54058;52.010;5.546;2023-05-16T08:01:03;6.97;;;1.00;;
67140;SDS011;54058;52.010;5.546;2023-05-16T08:03:28;4.72;;;0.90;;
67140;SDS011;54058;52.010;5.546;2023-05-16T08:05:54;7.63;;;1.42;;
67140;SDS011;54058;52.010;5.546;2023-05-16T08:08:20;8.70;;;1.17;;
67140;SDS011;54058;52.010;5.546;2023-05-16T08:10:45;8.60;;;0.90;;
67140;SDS011;54058;52.010;5.546;2023-05-16T08:13:11;8.32;;;1.10;;
67140;SDS011;54058;52.010;5.546;2023-05-16T08:15:37;6.93;;;1.10;;
67140;SDS011;54058;52.010;5.546;2023-05-16T08:18:02;10.20;;;1.10;;
67140;SDS011;54058;52.010;5.546;2023-05-16T08:20:30;8.68;;;1.02;;
67140;SDS011;54058;52.010;5.546;2023-05-16T08:22:56;11.30;;;1.27;;
67140;SDS011;54058;52.010;5.546;2023-05-16T08:25:22;10.45;;;1.10;;
67140;SDS011;54058;52.010;5.546;2023-05-16T08:27:48;6.72;;;1.83;;
67140;SDS011;54058;52.010;5.546;2023-05-16T08:30:16;4.75;;;1.00;;
67140;SDS011;54058;52.010;5.546;2023-05-16T08:32:42;3.00;;;0.65;;
67140;SDS011;54058;52.010;5.546;2023-05-16T08:35:08;5.85;;;1.10;;
67140;SDS011;54058;52.010;5.546;2023-05-16T08:37:58;4.35;;;0.75;;
67140;SDS011;54058;52.010;5.546;2023-05-16T08:40:57;2.08;;;0.57;;
67140;SDS011;54058;52.010;5.546;2023-05-16T08:43:44;5.25;;;0.90;;
67140;SDS011;54058;52.010;5.546;2023-05-16T08:46:22;7.07;;;1.47;;
67140;SDS011;54058;52.010;5.546;2023-05-16T08:48:52;9.25;;;1.30;;
67140;SDS011;54058;52.010;5.546;2023-05-16T08:51:34;5.72;;;1.33;;
67140;SDS011;54058;52.010;5.546;2023-05-16T08:54:05;8.55;;;1.27;;
67140;SDS011;54058;52.010;5.546;2023-05-16T08:56:42;4.63;;;1.50;;
67140;SDS011;54058;52.010;5.546;2023-05-16T08:59:22;6.90;;;1.50;;
67140;SDS011;54058;52.010;5.546;2023-05-16T09:01:57;9.35;;;1.40;;
67140;SDS011;54058;52.010;5.546;2023-05-16T09:04:37;5.70;;;1.02;;
67140;SDS011;54058;52.010;5.546;2023-05-16T09:07:11;4.05;;;1.27;;
67140;SDS011;54058;52.010;5.546;2023-05-16T09:09:39;7.78;;;1.20;;
67140;SDS011;54058;52.010;5.546;2023-05-16T09:12:08;9.65;;;1.40;;
67140;SDS011;54058;52.010;5.546;2023-05-16T09:14:33;5.75;;;1.42;;
67140;SDS011;54058;52.010;5.546;2023-05-16T09:17:06;6.80;;;1.33;;
67140;SDS011;54058;52.010;5.546;2023-05-16T09:19:39;10.27;;;1.48;;
67140;SDS011;54058;52.010;5.546;2023-05-16T09:22:12;9.70;;;1.38;;
67140;SDS011;54058;52.010;5.546;2023-05-16T09:24:39;10.85;;;1.50;;
67140;SDS011;54058;52.010;5.546;2023-05-16T09:27:15;8.55;;;1.05;;
67140;SDS011;54058;52.010;5.546;2023-05-16T09:29:45;5.47;;;1.00;;
67140;SDS011;54058;52.010;5.546;2023-05-16T09:32:15;4.13;;;1.27;;
67140;SDS011;54058;52.010;5.546;2023-05-16T09:34:43;8.00;;;1.45;;
67140;SDS011;54058;52.010;5.546;2023-05-16T09:37:12;9.68;;;1.48;;
67140;SDS011;54058;52.010;5.546;2023-05-16T09:39:39;7.45;;;1.20;;
67140;SDS011;54058;52.010;5.546;2023-05-16T09:42:10;5.68;;;1.10;;
67140;SDS011;54058;52.010;5.546;2023-05-16T09:44:38;6.07;;;0.90;;
67140;SDS011;54058;52.010;5.546;2023-05-16T09:47:04;7.43;;;1.10;;
67140;SDS011;54058;52.010;5.546;2023-05-16T09:49:30;3.33;;;0.80;;
67140;SDS011;54058;52.010;5.546;2023-05-16T09:51:59;2.38;;;0.93;;
67140;SDS011;54058;52.010;5.546;2023-05-16T09:54:29;8.15;;;1.23;;
67140;SDS011;54058;52.010;5.546;2023-05-16T09:56:58;4.50;;;1.23;;
67140;SDS011;54058;52.010;5.546;2023-05-16T09:59:24;9.30;;;1.23;;
67140;SDS011;54058;52.010;5.546;2023-05-16T10:01:52;7.47;;;1.05;;
67140;SDS011;54058;52.010;5.546;2023-05-16T10:04:20;6.03;;;0.93;;
67140;SDS011;54058;52.010;5.546;2023-05-16T10:06:46;7.32;;;1.23;;
67140;SDS011;54058;52.010;5.546;2023-05-16T10:09:14;5.60;;;1.13;;
67140;SDS011;54058;52.010;5.546;2023-05-16T10:11:41;4.40;;;0.80;;
67140;SDS011;54058;52.010;5.546;2023-05-16T10:14:11;3.47;;;0.73;;
67140;SDS011;54058;52.010;5.546;2023-05-16T10:16:41;3.70;;;0.98;;
67140;SDS011;54058;52.010;5.546;2023-05-16T10:19:08;5.43;;;1.23;;
67140;SDS011;54058;52.010;5.546;2023-05-16T10:21:35;5.30;;;1.08;;
67140;SDS011;54058;52.010;5.546;2023-05-16T10:24:02;4.20;;;1.20;;
67140;SDS011;54058;52.010;5.546;2023-05-16T10:26:34;5.57;;;1.00;;
67140;SDS011;54058;52.010;5.546;2023-05-16T10:29:00;6.50;;;1.10;;
67140;SDS011;54058;52.010;5.546;2023-05-16T10:31:27;5.80;;;1.27;;
67140;SDS011;54058;52.010;5.546;2023-05-16T10:33:53;2.75;;;0.93;;
67140;SDS011;54058;52.010;5.546;2023-05-16T10:36:21;3.35;;;1.10;;
67140;SDS011;54058;52.010;5.546;2023-05-16T10:38:47;3.70;;;1.08;;
67140;SDS011;54058;52.010;5.546;2023-05-16T10:41:14;6.72;;;1.17;;
67140;SDS011;54058;52.010;5.546;2023-05-16T10:43:42;5.70;;;1.15;;
67140;SDS011;54058;52.010;5.546;2023-05-16T10:46:10;6.95;;;1.77;;
67140;SDS011;54058;52.010;5.546;2023-05-16T10:48:40;6.70;;;1.05;;
67140;SDS011;54058;52.010;5.546;2023-05-16T10:53:47;4.70;;;0.95;;
67140;SDS011;54058;52.010;5.546;2023-05-16T10:56:16;3.60;;;1.30;;
67140;SDS011;54058;52.010;5.546;2023-05-16T10:58:47;5.57;;;1.20;;
67140;SDS011;54058;52.010;5.546;2023-05-16T11:01:17;4.75;;;0.82;;
67140;SDS011;54058;52.010;5.546;2023-05-16T11:06:29;5.38;;;1.30;;
67140;SDS011;54058;52.010;5.546;2023-05-16T11:09:05;8.60;;;0.80;;
67140;SDS011;54058;52.010;5.546;2023-05-16T11:19:30;3.65;;;1.10;;
67140;SDS011;54058;52.010;5.546;2023-05-16T11:27:24;11.63;;;1.38;;
67140;SDS011;54058;52.010;5.546;2023-05-16T11:29:52;9.15;;;1.30;;
67140;SDS011;54058;52.010;5.546;2023-05-16T11:32:21;6.90;;;1.10;;
67140;SDS011;54058;52.010;5.546;2023-05-16T11:34:47;2.25;;;0.70;;
67140;SDS011;54058;52.010;5.546;2023-05-16T11:37:14;7.28;;;1.00;;
67140;SDS011;54058;52.010;5.546;2023-05-16T11:39:40;6.72;;;1.08;;
67140;SDS011;54058;52.010;5.546;2023-05-16T11:42:06;4.80;;;1.08;;
67140;SDS011;54058;52.010;5.546;2023-05-16T11:44:33;6.38;;;1.40;;
67140;SDS011;54058;52.010;5.546;2023-05-16T11:46:59;8.40;;;1.65;;
67140;SDS011;54058;52.010;5.546;2023-05-16T11:49:26;3.70;;;0.95;;
67140;SDS011;54058;52.010;5.546;2023-05-16T11:51:53;5.03;;;1.40;;
67140;SDS011;54058;52.010;5.546;2023-05-16T11:54:20;2.40;;;0.60;;
67140;SDS011;54058;52.010;5.546;2023-05-16T11:56:46;2.58;;;0.80;;
67140;SDS011;54058;52.010;5.546;2023-05-16T11:59:13;8.10;;;1.15;;
67140;SDS011;54058;52.010;5.546;2023-05-16T12:01:39;5.13;;;1.20;;
67140;SDS011;54058;52.010;5.546;2023-05-16T12:04:09;2.00;;;0.82;;
67140;SDS011;54058;52.010;5.546;2023-05-16T12:06:36;6.70;;;0.88;;
67140;SDS011;54058;52.010;5.546;2023-05-16T12:09:05;3.50;;;0.87;;
67140;SDS011;54058;52.010;5.546;2023-05-16T12:11:38;6.25;;;1.00;;
67140;SDS011;54058;52.010;5.546;2023-05-16T12:14:06;6.53;;;1.10;;
67140;SDS011;54058;52.010;5.546;2023-05-16T12:16:33;7.80;;;0.80;;
67140;SDS011;54058;52.010;5.546;2023-05-16T12:19:01;9.95;;;0.98;;
67140;SDS011;54058;52.010;5.546;2023-05-16T12:21:28;3.78;;;0.90;;
67140;SDS011;54058;52.010;5.546;2023-05-16T12:23:57;4.28;;;0.90;;
67140;SDS011;54058;52.010;5.546;2023-05-16T12:26:24;6.07;;;1.03;;
67140;SDS011;54058;52.010;5.546;2023-05-16T12:29:15;5.93;;;0.98;;
67140;SDS011;54058;52.010;5.546;2023-05-16T12:31:57;7.07;;;1.52;;
67140;SDS011;54058;52.010;5.546;2023-05-16T12:34:34;5.25;;;0.88;;
67140;SDS011;54058;52.010;5.546;2023-05-16T12:36:59;5.68;;;1.27;;
67140;SDS011;54058;52.010;5.546;2023-05-16T12:39:25;3.60;;;0.80;;
67140;SDS011;54058;52.010;5.546;2023-05-16T12:41:51;5.72;;;0.95;;
67140;SDS011;54058;52.010;5.546;2023-05-16T12:44:17;6.47;;;1.42;;
67140;SDS011;54058;52.010;5.546;2023-05-16T12:46:44;7.22;;;1.27;;
67140;SDS011;54058;52.010;5.546;2023-05-16T12:49:12;8.18;;;1.58;;
67140;SDS011;54058;52.010;5.546;2023-05-16T12:51:46;11.20;;;1.45;;
67140;SDS011;54058;52.010;5.546;2023-05-16T12:54:14;3.10;;;1.00;;
67140;SDS011;54058;52.010;5.546;2023-05-16T12:56:40;5.35;;;0.98;;
67140;SDS011;54058;52.010;5.546;2023-05-16T12:59:06;7.20;;;1.27;;
67140;SDS011;54058;52.010;5.546;2023-05-16T13:01:35;10.48;;;1.30;;
67140;SDS011;54058;52.010;5.546;2023-05-16T13:04:01;5.10;;;1.10;;
67140;SDS011;54058;52.010;5.546;2023-05-16T13:06:27;9.13;;;1.40;;
67140;SDS011;54058;52.010;5.546;2023-05-16T13:08:54;6.63;;;1.02;;
67140;SDS011;54058;52.010;5.546;2023-05-16T13:11:20;6.20;;;1.27;;
67140;SDS011;54058;52.010;5.546;2023-05-16T13:13:45;6.13;;;1.38;;
67140;SDS011;54058;52.010;5.546;2023-05-16T13:16:11;6.30;;;1.20;;
67140;SDS011;54058;52.010;5.546;2023-05-16T13:18:37;12.63;;;1.10;;
67140;SDS011;54058;52.010;5.546;2023-05-16T13:21:02;11.48;;;1.42;;
67140;SDS011;54058;52.010;5.546;2023-05-16T13:23:28;10.52;;;1.48;;
67140;SDS011;54058;52.010;5.546;2023-05-16T13:25:54;5.30;;;1.33;;
67140;SDS011;54058;52.010;5.546;2023-05-16T13:28:20;8.15;;;1.27;;
67140;SDS011;54058;52.010;5.546;2023-05-16T13:30:46;7.88;;;1.58;;
67140;SDS011;54058;52.010;5.546;2023-05-16T13:33:11;5.80;;;1.27;;
67140;SDS011;54058;52.010;5.546;2023-05-16T13:35:37;4.57;;;1.25;;
67140;SDS011;54058;52.010;5.546;2023-05-16T13:38:03;6.40;;;1.38;;
67140;SDS011;54058;52.010;5.546;2023-05-16T13:40:29;8.98;;;1.30;;
67140;SDS011;54058;52.010;5.546;2023-05-16T13:42:54;6.53;;;1.20;;
67140;SDS011;54058;52.010;5.546;2023-05-16T13:45:21;3.33;;;0.77;;
67140;SDS011;54058;52.010;5.546;2023-05-16T13:47:46;5.97;;;1.20;;
67140;SDS011;54058;52.010;5.546;2023-05-16T13:50:12;7.53;;;1.77;;
67140;SDS011;54058;52.010;5.546;2023-05-16T13:52:38;4.00;;;1.10;;
67140;SDS011;54058;52.010;5.546;2023-05-16T13:55:04;5.43;;;1.48;;
67140;SDS011;54058;52.010;5.546;2023-05-16T13:57:30;6.10;;;1.48;;
67140;SDS011;54058;52.010;5.546;2023-05-16T13:59:57;4.67;;;1.37;;
67140;SDS011;54058;52.010;5.546;2023-05-16T14:02:23;9.27;;;1.40;;
67140;SDS011;54058;52.010;5.546;2023-05-16T14:04:51;4.88;;;1.30;;
67140;SDS011;54058;52.010;5.546;2023-05-16T14:07:17;8.95;;;1.30;;
67140;SDS011;54058;52.010;5.546;2023-05-16T14:09:43;5.78;;;1.30;;
67140;SDS011;54058;52.010;5.546;2023-05-16T14:12:09;6.65;;;1.27;;
67140;SDS011;54058;52.010;5.546;2023-05-16T14:14:35;6.95;;;1.08;;
67140;SDS011;54058;52.010;5.546;2023-05-16T14:17:01;4.43;;;1.00;;
67140;SDS011;54058;52.010;5.546;2023-05-16T14:19:28;3.88;;;1.20;;
67140;SDS011;54058;52.010;5.546;2023-05-16T14:21:54;4.82;;;1.38;;
67140;SDS011;54058;52.010;5.546;2023-05-16T14:24:20;8.43;;;1.00;;
67140;SDS011;54058;52.010;5.546;2023-05-16T14:26:45;7.38;;;1.50;;
67140;SDS011;54058;52.010;5.546;2023-05-16T14:29:11;6.57;;;1.10;;
67140;SDS011;54058;52.010;5.546;2023-05-16T14:31:37;7.78;;;1.17;;
67140;SDS011;54058;52.010;5.546;2023-05-16T14:34:04;3.50;;;0.90;;
67140;SDS011;54058;52.010;5.546;2023-05-16T14:36:30;3.28;;;0.95;;
67140;SDS011;54058;52.010;5.546;2023-05-16T14:38:56;4.03;;;1.20;;
67140;SDS011;54058;52.010;5.546;2023-05-16T14:41:22;8.77;;;1.53;;
67140;SDS011;54058;52.010;5.546;2023-05-16T14:43:48;7.97;;;1.02;;
67140;SDS011;54058;52.010;5.546;2023-05-16T14:46:14;4.63;;;1.00;;
67140;SDS011;54058;52.010;5.546;2023-05-16T14:48:39;9.32;;;1.27;;
67140;SDS011;54058;52.010;5.546;2023-05-16T14:51:05;9.30;;;1.02;;
67140;SDS011;54058;52.010;5.546;2023-05-16T14:53:31;5.07;;;1.38;;
67140;SDS011;54058;52.010;5.546;2023-05-16T14:55:57;4.43;;;0.98;;
67140;SDS011;54058;52.010;5.546;2023-05-16T14:58:23;3.22;;;0.93;;
67140;SDS011;54058;52.010;5.546;2023-05-16T15:00:49;5.82;;;1.40;;
67140;SDS011;54058;52.010;5.546;2023-05-16T15:03:15;3.35;;;1.00;;
67140;SDS011;54058;52.010;5.546;2023-05-16T15:05:42;7.28;;;1.27;;
67140;SDS011;54058;52.010;5.546;2023-05-16T15:08:08;5.22;;;1.38;;
67140;SDS011;54058;52.010;5.546;2023-05-16T15:10:34;5.57;;;1.17;;
67140;SDS011;54058;52.010;5.546;2023-05-16T15:12:59;7.53;;;1.25;;
67140;SDS011;54058;52.010;5.546;2023-05-16T15:15:25;7.43;;;1.05;;
67140;SDS011;54058;52.010;5.546;2023-05-16T15:17:52;5.95;;;0.85;;